Terminal Aerodrome Forecast
Issued by NWS Mt. Holly, NJ

Home | Current Version | Previous Version | Text Only | Print | Product List | Glossary On
Versions: 1 2 3 4 5 6 7 8 9 10 11 12 13 14 15 16 17 18 19 20 21
000
FTUS41 KPHI 011100
TAFABE
TAF
KABE 011120Z 0112/0212 24006KT P6SM OVC040
     FM011700 25005KT P6SM SCT015 OVC025
      TEMPO 0120/0123 2SM -SN BKN010
     FM012300 10005KT 1SM -SN BKN009
     FM021000 08009KT 1SM -SNPL BKN007=

USA.gov is the U.S. government's official web portal to all federal, state and local government web resources and services.